Keene, NH (03431)

7:23 AM EDT on April 26, 2017 (GMT -0400)
Court St. | | Change Station

Elev 522 ft 42.94 °N, 72.29 °W | Updated 16 seconds ago

Light Rain
Light Rain
47.3 °F
Feels Like 47 °F
N
0.0
Wind Variable Wind from West

Today
High -- | Low -- °F
--% Chance of Precip.
Yesterday
High -- | Low -- °F
Precip. -- in
Pressure 29.93 in
Visibility 10.0 miles
Clouds Few 1300 ft
Overcast 2000 ft
Windchill 47 °F
Dew Point 45 °F
Humidity 93%
Rainfall 0.30 in
Snow Depth Not available.
5:49 AM 7:44 PM
Waning Crescent, 0% visible
SPECI KEEN 261103Z AUTO 02009KT 10SM -RA FEW013 OVC020 09/07 A2993 RMK AO2 P0000
Pressure 29.93 in
Visibility 10.0 miles
Clouds Few 1300 ft
Overcast 2000 ft
Windchill 47 °F
Dew Point 45 °F
Humidity 93%
Rainfall 0.30 in
Snow Depth Not available.
5:49 AM 7:44 PM
Waning Crescent, 0% visible
SPECI KEEN 261103Z AUTO 02009KT 10SM -RA FEW013 OVC020 09/07 A2993 RMK AO2 P0000

Get Severe Weather Alerts

Thanks for signing up!

Be on the lookout for a verification email in your inbox.

You'll start receiving the daily forecast at 8 AM.

×

10-Day Weather Forecast

Almanac

Astronomy

Apr. 26, 2017 Rise Set
Actual Time
Civil Twilight
Nautical Twilight
Astronomical Twilight
Moon
Length of Visible Light
Length of Day
Tomorrow will be .
, % of the Moon is Illuminated

Today's Extremes

State Highs State Lows

Community

WunderPhotos

WunderBlog® & News

Nearby

Air Quality

  Air Quality AQ Index Pollutant
Not available.

Snow Depth

Station Depth Elevation

Earthquake Activity

City Distance Mag. Time & Date
Minimum magnitude displayed is 2.5.

Coastal Water Temperatures

Place Temperature

Stations

Nearby Weather Stations

Station Location Temp. Windchill Dew Point Humidity Wind Precip. Elev Updated Type
                   

Watches & Warnings

There are currently no watches in effect.